createdAt,value
2019-05-20T00:00:46.329Z,2.20
2019-05-20T00:03:14.732Z,1.62
2019-05-20T00:05:43.337Z,1.72
2019-05-20T00:08:11.937Z,1.85
2019-05-20T00:10:40.345Z,1.40
2019-05-20T00:13:08.743Z,2.75
2019-05-20T00:15:37.238Z,1.82
2019-05-20T00:18:05.861Z,1.37
2019-05-20T00:20:34.273Z,2.00
2019-05-20T00:23:02.676Z,2.00
2019-05-20T00:25:31.096Z,2.02
2019-05-20T00:27:59.648Z,1.52
2019-05-20T00:30:28.060Z,3.58
2019-05-20T00:32:56.457Z,1.50
2019-05-20T00:35:24.548Z,1.80
2019-05-20T00:37:52.944Z,1.60
2019-05-20T00:40:21.367Z,4.00
2019-05-20T00:42:49.776Z,3.42
2019-05-20T00:45:18.460Z,1.55
2019-05-20T00:47:46.859Z,1.55
2019-05-20T00:50:15.509Z,1.47
2019-05-20T00:52:43.594Z,4.35
2019-05-20T00:55:23.778Z,1.72
2019-05-20T00:57:52.346Z,1.98
2019-05-20T01:00:20.824Z,3.85
2019-05-20T01:02:56.599Z,1.82
2019-05-20T01:05:19.376Z,2.72
2019-05-20T01:07:47.781Z,1.65
2019-05-20T01:10:16.573Z,2.20
2019-05-20T01:12:44.978Z,1.98
2019-05-20T01:15:14.197Z,2.67
2019-05-20T01:17:42.729Z,1.80
2019-05-20T01:20:11.576Z,1.95
2019-05-20T01:22:39.998Z,1.92
2019-05-20T01:25:08.688Z,2.22
2019-05-20T01:27:37.123Z,2.02
2019-05-20T01:30:07.993Z,1.65
2019-05-20T01:32:36.404Z,2.42
2019-05-20T01:35:07.012Z,2.17
2019-05-20T01:37:35.400Z,2.08
2019-05-20T01:40:04.357Z,1.90
2019-05-20T01:42:32.773Z,1.80
2019-05-20T01:45:01.187Z,1.80
2019-05-20T01:47:29.609Z,3.60
2019-05-20T01:49:58.026Z,1.60
2019-05-20T01:52:26.432Z,1.60
2019-05-20T01:54:55.022Z,2.70
2019-05-20T01:57:23.440Z,1.67
2019-05-20T01:59:51.841Z,1.90
2019-05-20T02:02:20.255Z,1.67
2019-05-20T02:04:48.655Z,2.70
2019-05-20T02:07:17.344Z,2.27
2019-05-20T02:09:45.429Z,1.60
2019-05-20T02:12:13.848Z,2.95
2019-05-20T02:14:43.553Z,2.67
2019-05-20T02:17:11.989Z,3.58
2019-05-20T02:19:40.387Z,3.20
2019-05-20T02:22:08.472Z,3.25
2019-05-20T02:24:36.880Z,1.70
2019-05-20T02:27:05.291Z,2.42
2019-05-20T02:29:33.714Z,1.77
2019-05-20T02:32:02.132Z,2.42
2019-05-20T02:34:30.536Z,3.20
2019-05-20T02:36:58.955Z,2.17
2019-05-20T02:39:27.352Z,1.87
2019-05-20T02:41:55.844Z,2.47
2019-05-20T02:44:23.925Z,3.62
2019-05-20T02:46:52.338Z,2.45
2019-05-20T02:49:20.735Z,2.22
2019-05-20T02:51:49.160Z,2.40
2019-05-20T02:54:17.562Z,2.35
2019-05-20T02:56:45.977Z,2.83
2019-05-20T02:59:14.373Z,2.50
2019-05-20T03:01:42.853Z,3.15
2019-05-20T03:04:12.892Z,4.35
2019-05-20T03:06:41.044Z,3.55
2019-05-20T03:09:12.189Z,2.98
2019-05-20T03:11:39.609Z,3.87
2019-05-20T03:14:08.020Z,3.37
2019-05-20T03:16:36.410Z,5.65
2019-05-20T03:19:04.475Z,5.80
2019-05-20T03:21:32.877Z,4.05
2019-05-20T03:24:00.975Z,4.55
2019-05-20T03:26:29.372Z,4.83
2019-05-20T03:28:57.463Z,6.28
2019-05-20T03:31:25.858Z,5.25
2019-05-20T03:33:54.265Z,4.90
2019-05-20T03:36:22.337Z,4.37
2019-05-20T03:38:50.761Z,7.62
2019-05-20T03:41:19.150Z,5.17
2019-05-20T03:43:47.250Z,6.45
2019-05-20T03:46:15.633Z,5.45
2019-05-20T03:48:44.059Z,6.10
2019-05-20T03:51:12.475Z,8.28
2019-05-20T03:53:40.889Z,5.30
2019-05-20T03:56:08.989Z,4.92
2019-05-20T03:58:37.486Z,5.60
2019-05-20T04:01:05.889Z,7.03
2019-05-20T04:03:34.311Z,8.55
2019-05-20T04:06:02.438Z,10.55
2019-05-20T04:08:30.852Z,9.23
2019-05-20T04:10:59.261Z,7.55
2019-05-20T04:13:27.937Z,6.25
2019-05-20T04:15:56.016Z,5.75
2019-05-20T04:18:24.426Z,9.20
2019-05-20T04:20:52.839Z,4.78
2019-05-20T04:23:21.260Z,5.37
2019-05-20T04:25:49.738Z,5.58
2019-05-20T04:28:18.154Z,5.72
2019-05-20T04:30:46.621Z,7.55
2019-05-20T04:33:15.022Z,6.25
2019-05-20T04:35:43.446Z,6.20
2019-05-20T04:38:11.932Z,4.95
2019-05-20T04:40:40.880Z,6.95
2019-05-20T04:43:09.522Z,4.08
2019-05-20T04:45:37.938Z,4.75
2019-05-20T04:48:06.383Z,5.08
2019-05-20T04:50:34.495Z,4.62
2019-05-20T04:53:02.918Z,11.25
2019-05-20T04:55:31.348Z,4.58
2019-05-20T04:57:59.750Z,6.00
2019-05-20T05:00:40.162Z,4.70
2019-05-20T05:03:08.565Z,3.98
2019-05-20T05:05:38.075Z,3.62
2019-05-20T05:08:06.704Z,3.92
2019-05-20T05:10:35.123Z,3.08
2019-05-20T05:13:03.521Z,3.42
2019-05-20T05:15:31.600Z,3.37
2019-05-20T05:18:00.020Z,3.12
2019-05-20T05:20:28.432Z,3.67
2019-05-20T05:22:56.904Z,2.95
2019-05-20T05:25:25.489Z,2.47
2019-05-20T05:27:53.890Z,2.12
2019-05-20T05:30:22.297Z,1.80
2019-05-20T05:32:50.713Z,1.40
2019-05-20T05:35:19.766Z,1.20
2019-05-20T05:37:48.305Z,2.08
2019-05-20T05:40:20.204Z,1.57
2019-05-20T05:42:48.647Z,1.30
2019-05-20T05:45:20.143Z,4.97
2019-05-20T05:47:48.289Z,0.78
2019-05-20T05:50:17.163Z,1.60
2019-05-20T05:52:45.576Z,0.90
2019-05-20T05:55:14.093Z,1.32
2019-05-20T05:57:42.484Z,1.22
2019-05-20T06:00:11.105Z,1.10
2019-05-20T06:02:39.505Z,1.15
2019-05-20T06:05:08.053Z,3.67
2019-05-20T06:07:36.456Z,2.92
2019-05-20T06:10:06.703Z,1.30
2019-05-20T06:12:35.172Z,2.47
2019-05-20T06:15:05.729Z,2.42
2019-05-20T06:17:34.132Z,2.25
2019-05-20T06:20:02.615Z,2.27
2019-05-20T06:22:31.030Z,2.77
2019-05-20T06:24:59.193Z,3.10
2019-05-20T06:27:27.264Z,3.47
2019-05-20T06:29:55.676Z,4.08
2019-05-20T06:32:23.771Z,10.82
2019-05-20T06:34:52.348Z,4.92
2019-05-20T06:37:22.093Z,7.45
2019-05-20T06:39:51.264Z,6.37
2019-05-20T06:42:20.051Z,8.05
2019-05-20T06:44:52.905Z,8.08
2019-05-20T06:47:18.631Z,6.45
2019-05-20T06:49:47.083Z,7.08
2019-05-20T06:52:15.488Z,6.05
2019-05-20T06:54:43.556Z,6.47
2019-05-20T06:57:12.011Z,9.60
2019-05-20T06:59:40.237Z,6.47
2019-05-20T07:02:08.698Z,6.12
2019-05-20T07:04:37.176Z,6.60
2019-05-20T07:07:20.028Z,5.42
2019-05-20T07:09:35.414Z,7.20
2019-05-20T07:12:03.967Z,7.33
2019-05-20T07:14:32.460Z,6.67
2019-05-20T07:17:00.853Z,6.53
2019-05-20T07:19:29.253Z,7.12
2019-05-20T07:21:57.761Z,7.35
2019-05-20T07:24:26.182Z,7.03
2019-05-20T07:26:54.613Z,6.58
2019-05-20T07:29:22.673Z,8.00
2019-05-20T07:31:51.082Z,6.12
2019-05-20T07:34:19.154Z,8.53
2019-05-20T07:37:01.878Z,5.65
2019-05-20T07:39:17.697Z,6.78
2019-05-20T07:41:46.108Z,5.75
2019-05-20T07:44:14.501Z,18.95
2019-05-20T07:46:42.995Z,4.90
2019-05-20T07:49:11.859Z,5.37
2019-05-20T07:51:41.738Z,6.67
2019-05-20T07:54:11.238Z,4.50
2019-05-20T07:56:42.709Z,5.70
2019-05-20T07:59:14.200Z,5.17
2019-05-20T08:01:42.621Z,6.37
2019-05-20T08:04:11.017Z,3.95
2019-05-20T08:06:39.450Z,5.08
2019-05-20T08:09:08.228Z,4.58
2019-05-20T08:11:36.377Z,4.37
2019-05-20T08:14:05.028Z,17.35
2019-05-20T08:16:33.928Z,3.98
2019-05-20T08:19:02.317Z,5.75
2019-05-20T08:21:30.749Z,3.45
2019-05-20T08:23:59.162Z,5.47
2019-05-20T08:26:27.626Z,4.10
2019-05-20T08:28:56.133Z,6.42
2019-05-20T08:31:24.561Z,5.17
2019-05-20T08:33:53.070Z,4.90
2019-05-20T08:36:21.472Z,5.10
2019-05-20T08:38:49.872Z,5.75
2019-05-20T08:41:18.271Z,6.35
2019-05-20T08:43:46.701Z,9.78
2019-05-20T08:46:14.783Z,8.43
2019-05-20T08:48:42.866Z,10.13
2019-05-20T08:51:10.948Z,10.30
2019-05-20T08:53:39.020Z,11.57
2019-05-20T08:56:07.420Z,11.08
2019-05-20T08:58:35.846Z,13.20
2019-05-20T09:01:04.354Z,10.98
2019-05-20T09:03:32.878Z,11.55
2019-05-20T09:06:01.350Z,15.48
2019-05-20T09:08:29.804Z,12.73
2019-05-20T09:10:58.312Z,21.40
2019-05-20T09:13:27.035Z,25.70
2019-05-20T09:15:55.438Z,27.25
2019-05-20T09:18:23.882Z,24.92
2019-05-20T09:20:52.297Z,19.77
2019-05-20T09:23:20.741Z,11.18
2019-05-20T09:25:49.376Z,12.60
2019-05-20T09:28:17.782Z,12.88
2019-05-20T09:30:46.341Z,11.65
2019-05-20T09:33:14.899Z,13.80
2019-05-20T09:35:43.545Z,15.60
2019-05-20T09:38:19.979Z,16.32
2019-05-20T09:40:43.595Z,16.93
2019-05-20T09:43:12.089Z,12.50
2019-05-20T09:45:40.737Z,15.23
2019-05-20T09:48:09.691Z,11.93
2019-05-20T09:50:38.152Z,12.45
2019-05-20T09:53:07.529Z,13.95
2019-05-20T09:55:36.651Z,13.05
2019-05-20T09:58:05.885Z,11.45
2019-05-20T10:00:34.437Z,8.78
2019-05-20T10:03:03.064Z,13.15
2019-05-20T10:05:31.661Z,10.88
2019-05-20T10:07:59.750Z,10.70
2019-05-20T10:10:28.157Z,11.18
2019-05-20T10:12:56.594Z,12.90
2019-05-20T10:15:25.420Z,18.62
2019-05-20T10:17:53.942Z,14.38
2019-05-20T10:20:22.469Z,10.35
2019-05-20T10:22:50.885Z,10.43
2019-05-20T10:25:20.345Z,10.60
2019-05-20T10:27:48.746Z,11.15
2019-05-20T10:30:17.700Z,11.90
2019-05-20T10:32:46.125Z,10.93
2019-05-20T10:35:16.349Z,8.35
2019-05-20T10:37:44.753Z,10.40
2019-05-20T10:40:13.208Z,14.80
2019-05-20T10:42:41.689Z,10.15
2019-05-20T10:45:10.650Z,13.45
2019-05-20T10:47:39.049Z,11.28
2019-05-20T10:50:08.212Z,14.58
2019-05-20T10:52:36.625Z,16.00
2019-05-20T10:55:06.987Z,11.05
2019-05-20T10:57:35.432Z,11.73
2019-05-20T11:00:05.460Z,10.55
2019-05-20T11:02:33.860Z,11.48
2019-05-20T11:05:02.273Z,12.73
2019-05-20T11:07:30.685Z,8.78
2019-05-20T11:09:58.774Z,9.08
2019-05-20T11:12:27.221Z,12.00
2019-05-20T11:14:55.665Z,12.00
2019-05-20T11:17:24.160Z,10.25
2019-05-20T11:19:52.583Z,8.23
2019-05-20T11:22:20.991Z,10.98
2019-05-20T11:24:49.398Z,9.05
2019-05-20T11:27:17.832Z,9.48
2019-05-20T11:29:46.322Z,8.78
2019-05-20T11:32:14.804Z,10.78
2019-05-20T11:34:43.274Z,9.58
2019-05-20T11:37:11.677Z,9.40
2019-05-20T11:39:40.106Z,9.15
2019-05-20T11:42:08.174Z,13.05
2019-05-20T11:44:36.594Z,11.97
2019-05-20T11:47:05.091Z,12.23
2019-05-20T11:49:33.558Z,7.75
2019-05-20T11:52:01.978Z,7.08
2019-05-20T11:54:30.113Z,12.90
2019-05-20T11:56:58.571Z,9.68
2019-05-20T11:59:26.989Z,10.35
2019-05-20T12:01:55.414Z,10.40
2019-05-20T12:04:23.826Z,11.63
2019-05-20T12:06:52.223Z,9.95
2019-05-20T12:09:20.655Z,7.60
2019-05-20T12:11:49.062Z,8.03
2019-05-20T12:14:17.460Z,5.50
2019-05-20T12:16:45.874Z,6.42
2019-05-20T12:19:14.289Z,4.92
2019-05-20T12:21:42.709Z,3.90
2019-05-20T12:24:10.780Z,5.05
2019-05-20T12:26:39.268Z,3.95
2019-05-20T12:29:07.683Z,3.40
2019-05-20T12:31:36.111Z,2.45
2019-05-20T12:34:04.629Z,2.55
2019-05-20T12:36:33.065Z,2.27
2019-05-20T12:39:01.473Z,4.92
2019-05-20T12:41:29.971Z,1.95
2019-05-20T12:44:11.086Z,1.72
2019-05-20T12:46:27.947Z,2.00
2019-05-20T12:48:56.433Z,2.10
2019-05-20T12:51:24.967Z,3.22
2019-05-20T12:53:53.369Z,1.75
2019-05-20T12:56:21.797Z,0.75
2019-05-20T12:58:50.203Z,0.50
2019-05-20T13:01:18.612Z,0.65
2019-05-20T13:03:47.030Z,1.07
2019-05-20T13:06:15.450Z,0.30
2019-05-20T13:08:43.845Z,0.60
2019-05-20T13:11:12.279Z,0.45
2019-05-20T13:13:40.672Z,6.37
2019-05-20T13:16:09.081Z,1.22
2019-05-20T13:18:37.511Z,1.20
2019-05-20T13:21:05.590Z,4.22
2019-05-20T13:23:33.985Z,0.75
2019-05-20T13:26:02.415Z,0.30
2019-05-20T13:28:30.828Z,0.95
2019-05-20T13:30:59.242Z,0.20
2019-05-20T13:33:27.660Z,0.70
2019-05-20T13:35:56.077Z,0.70
2019-05-20T13:38:24.497Z,1.00
2019-05-20T13:40:52.910Z,1.60
2019-05-20T13:43:21.312Z,1.37
2019-05-20T13:45:49.736Z,1.42
2019-05-20T13:48:18.132Z,0.98
2019-05-20T13:50:46.534Z,1.15
2019-05-20T13:53:14.935Z,1.72
2019-05-20T13:55:43.344Z,0.65
2019-05-20T13:58:11.803Z,0.45
2019-05-20T14:00:39.876Z,1.62
2019-05-20T14:03:08.280Z,0.60
2019-05-20T14:05:36.683Z,0.30
2019-05-20T14:08:05.202Z,1.75
2019-05-20T14:10:33.716Z,3.15
2019-05-20T14:13:02.202Z,3.85
2019-05-20T14:15:30.664Z,6.97
2019-05-20T14:17:59.086Z,4.53
2019-05-20T14:20:27.497Z,1.00
2019-05-20T14:22:55.979Z,0.20
2019-05-20T14:25:24.464Z,1.62
2019-05-20T14:27:52.872Z,2.25
2019-05-20T14:30:21.448Z,0.70
2019-05-20T14:32:49.537Z,0.30
2019-05-20T14:35:17.995Z,0.70
2019-05-20T14:37:46.412Z,0.45
2019-05-20T14:40:14.661Z,1.30
2019-05-20T14:42:42.761Z,0.93
2019-05-20T14:45:11.817Z,0.50
2019-05-20T14:47:40.215Z,6.28
2019-05-20T14:50:08.992Z,1.15
2019-05-20T14:52:37.411Z,0.30
2019-05-20T14:55:06.474Z,0.90
2019-05-20T14:57:34.899Z,1.87
2019-05-20T15:00:03.128Z,0.50
2019-05-20T15:02:31.550Z,1.70
2019-05-20T15:04:59.946Z,0.40
2019-05-20T15:07:30.967Z,0.93
2019-05-20T15:09:58.605Z,0.50
2019-05-20T15:12:27.025Z,0.65
2019-05-20T15:14:55.782Z,0.65
2019-05-20T15:17:24.265Z,1.40
2019-05-20T15:19:52.674Z,0.70
2019-05-20T15:22:21.091Z,2.05
2019-05-20T15:24:49.490Z,1.05
2019-05-20T15:27:17.898Z,0.50
2019-05-20T15:29:46.312Z,0.70
2019-05-20T15:32:14.399Z,1.65
2019-05-20T15:34:42.874Z,0.35
2019-05-20T15:37:10.993Z,0.90
2019-05-20T15:39:39.429Z,0.47
2019-05-20T15:42:07.916Z,0.20
2019-05-20T15:44:36.341Z,0.40
2019-05-20T15:47:04.761Z,0.53
2019-05-20T15:49:32.934Z,0.40
2019-05-20T15:52:20.701Z,0.50
2019-05-20T15:54:49.157Z,0.75
2019-05-20T15:57:17.583Z,2.25
2019-05-20T15:59:46.831Z,1.30
2019-05-20T16:02:15.288Z,1.45
2019-05-20T16:04:43.697Z,0.88
2019-05-20T16:07:12.122Z,1.20
2019-05-20T16:09:40.267Z,2.30
2019-05-20T16:12:08.731Z,3.02
2019-05-20T16:14:37.205Z,2.85
2019-05-20T16:17:05.625Z,0.42
2019-05-20T16:19:34.037Z,0.50
2019-05-20T16:22:02.526Z,1.32
2019-05-20T16:24:50.289Z,0.40
2019-05-20T16:27:18.788Z,0.95
2019-05-20T16:30:04.845Z,0.72
2019-05-20T16:32:17.320Z,0.50
2019-05-20T16:34:45.729Z,0.50
2019-05-20T16:37:14.148Z,0.90
2019-05-20T16:39:42.553Z,1.65
2019-05-20T16:42:12.030Z,1.62
2019-05-20T16:44:40.540Z,0.80
2019-05-20T16:47:08.638Z,0.80
2019-05-20T16:49:37.039Z,0.72
2019-05-20T16:52:05.501Z,0.90
2019-05-20T16:54:33.952Z,0.60
2019-05-20T16:57:02.381Z,1.10
2019-05-20T16:59:30.783Z,2.55
2019-05-20T17:01:59.214Z,1.95
2019-05-20T17:04:27.623Z,2.52
2019-05-20T17:06:56.132Z,1.30
2019-05-20T17:09:24.201Z,3.62
2019-05-20T17:11:52.623Z,2.72
2019-05-20T17:14:21.054Z,1.80
2019-05-20T17:16:49.538Z,2.80
2019-05-20T17:19:37.053Z,1.80
2019-05-20T17:22:06.297Z,3.85
2019-05-20T17:24:34.718Z,3.47
2019-05-20T17:27:03.168Z,4.75
2019-05-20T17:29:31.646Z,2.95
2019-05-20T17:32:00.138Z,8.18
2019-05-20T17:34:28.604Z,8.23
2019-05-20T17:36:57.012Z,4.45
2019-05-20T17:39:25.439Z,3.33
2019-05-20T17:41:53.910Z,3.05
2019-05-20T17:44:22.386Z,3.85
2019-05-20T17:46:50.473Z,8.83
2019-05-20T17:49:18.887Z,5.75
2019-05-20T17:51:47.284Z,5.58
2019-05-20T17:54:15.704Z,3.62
2019-05-20T17:56:43.771Z,6.12
2019-05-20T17:59:12.205Z,8.13
2019-05-20T18:01:40.301Z,7.75
2019-05-20T18:04:08.738Z,6.60
2019-05-20T18:06:37.147Z,4.97
2019-05-20T18:09:07.577Z,6.30
2019-05-20T18:11:36.107Z,4.85
2019-05-20T18:14:05.084Z,7.33
2019-05-20T18:16:33.527Z,5.62
2019-05-20T18:19:01.998Z,5.03
2019-05-20T18:21:30.460Z,6.62
2019-05-20T18:23:58.549Z,11.05
2019-05-20T18:26:27.042Z,5.53
2019-05-20T18:28:55.469Z,7.05
2019-05-20T18:31:32.391Z,6.83
2019-05-20T18:33:54.040Z,7.53
2019-05-20T18:36:22.387Z,9.40
2019-05-20T18:38:50.796Z,8.55
2019-05-20T18:41:18.870Z,7.28
2019-05-20T18:43:47.376Z,6.62
2019-05-20T18:46:15.787Z,8.70
2019-05-20T18:48:44.217Z,6.60
2019-05-20T18:51:12.623Z,8.05
2019-05-20T18:53:41.040Z,9.93
2019-05-20T18:56:09.448Z,6.80
2019-05-20T18:58:37.883Z,7.40
2019-05-20T19:01:06.364Z,8.48
2019-05-20T19:03:34.807Z,7.17
2019-05-20T19:06:03.260Z,8.05
2019-05-20T19:08:31.677Z,8.88
2019-05-20T19:11:00.095Z,7.62
2019-05-20T19:13:28.461Z,5.95
2019-05-20T19:15:56.852Z,5.47
2019-05-20T19:18:25.340Z,4.35
2019-05-20T19:20:53.447Z,6.65
2019-05-20T19:23:21.870Z,5.50
2019-05-20T19:25:50.284Z,8.20
2019-05-20T19:28:18.704Z,6.50
2019-05-20T19:30:47.124Z,5.70
2019-05-20T19:33:16.792Z,6.80
2019-05-20T19:35:45.220Z,6.08
2019-05-20T19:38:13.636Z,5.92
2019-05-20T19:40:41.720Z,5.53
2019-05-20T19:43:10.117Z,6.55
2019-05-20T19:45:38.672Z,7.58
2019-05-20T19:48:07.137Z,8.40
2019-05-20T19:50:35.548Z,8.48
2019-05-20T19:53:04.072Z,9.28
2019-05-20T19:55:32.808Z,7.50
2019-05-20T19:58:00.881Z,8.88
2019-05-20T20:00:29.308Z,8.15
2019-05-20T20:02:57.398Z,6.83
2019-05-20T20:05:25.468Z,9.38
2019-05-20T20:07:53.953Z,5.67
2019-05-20T20:10:22.365Z,5.65
2019-05-20T20:12:50.808Z,6.95
2019-05-20T20:15:20.017Z,5.60
2019-05-20T20:17:48.426Z,6.97
2019-05-20T20:20:16.585Z,4.25
2019-05-20T20:22:44.992Z,5.10
2019-05-20T20:25:13.840Z,5.55
2019-05-20T20:27:42.245Z,7.55
2019-05-20T20:30:11.390Z,4.87
2019-05-20T20:32:39.821Z,5.83
2019-05-20T20:35:09.085Z,5.67
2019-05-20T20:37:37.489Z,3.95
2019-05-20T20:40:06.145Z,5.05
2019-05-20T20:42:34.533Z,6.58
2019-05-20T20:45:03.022Z,3.92
2019-05-20T20:47:41.148Z,4.35
2019-05-20T20:50:02.640Z,6.47
2019-05-20T20:52:32.519Z,5.67
2019-05-20T20:55:01.234Z,4.90
2019-05-20T20:57:29.637Z,4.78
2019-05-20T20:59:58.048Z,6.30
2019-05-20T21:02:26.464Z,4.70
2019-05-20T21:04:54.885Z,5.03
2019-05-20T21:07:23.290Z,8.10
2019-05-20T21:09:51.697Z,7.17
2019-05-20T21:12:20.129Z,7.25
2019-05-20T21:14:48.521Z,6.78
2019-05-20T21:17:17.297Z,5.75
2019-05-20T21:19:45.765Z,6.53
2019-05-20T21:22:14.180Z,6.58
2019-05-20T21:24:42.584Z,7.70
2019-05-20T21:27:11.070Z,6.83
2019-05-20T21:29:39.485Z,7.55
2019-05-20T21:32:07.564Z,8.20
2019-05-20T21:34:35.972Z,8.33
2019-05-20T21:37:04.044Z,6.08
2019-05-20T21:39:32.475Z,6.72
2019-05-20T21:42:00.883Z,6.67
2019-05-20T21:44:29.273Z,6.85
2019-05-20T21:46:57.700Z,6.92
2019-05-20T21:49:26.114Z,5.65
2019-05-20T21:51:54.530Z,5.00
2019-05-20T21:54:22.931Z,4.00
2019-05-20T21:56:51.357Z,3.42
2019-05-20T21:59:19.756Z,3.47
2019-05-20T22:01:48.185Z,4.40
2019-05-20T22:04:16.599Z,2.87
2019-05-20T22:06:45.122Z,2.75
2019-05-20T22:09:13.532Z,1.90
2019-05-20T22:11:41.970Z,2.60
2019-05-20T22:14:10.368Z,2.77
2019-05-20T22:16:38.785Z,2.83
2019-05-20T22:19:06.850Z,2.90
2019-05-20T22:21:49.260Z,2.60
2019-05-20T22:24:17.661Z,3.35
2019-05-20T22:26:46.101Z,3.83
2019-05-20T22:29:14.512Z,1.90
2019-05-20T22:31:42.937Z,3.83
2019-05-20T22:34:11.332Z,3.37
2019-05-20T22:36:39.738Z,2.58
2019-05-20T22:39:08.182Z,3.12
2019-05-20T22:41:36.599Z,4.78
2019-05-20T22:44:05.567Z,3.17
2019-05-20T22:46:33.986Z,2.87
2019-05-20T22:49:02.397Z,3.02
2019-05-20T22:51:30.868Z,3.25
2019-05-20T22:53:59.310Z,4.78
2019-05-20T22:56:27.776Z,2.60
2019-05-20T22:58:56.185Z,2.95
2019-05-20T23:01:24.256Z,5.05
2019-05-20T23:03:56.310Z,3.20
2019-05-20T23:06:22.806Z,3.22
2019-05-20T23:08:51.216Z,5.17
2019-05-20T23:11:19.689Z,4.33
2019-05-20T23:13:48.100Z,2.58
2019-05-20T23:16:16.507Z,3.00
2019-05-20T23:18:44.925Z,1.82
2019-05-20T23:21:13.320Z,1.72
2019-05-20T23:23:41.405Z,1.32
2019-05-20T23:26:09.860Z,0.90
2019-05-20T23:28:37.970Z,0.90
2019-05-20T23:31:06.504Z,0.90
2019-05-20T23:33:34.922Z,3.17
2019-05-20T23:36:03.318Z,0.88
2019-05-20T23:38:31.744Z,0.80
2019-05-20T23:41:00.160Z,2.20
2019-05-20T23:43:28.583Z,1.12
2019-05-20T23:45:56.983Z,1.90
2019-05-20T23:48:25.394Z,1.30
2019-05-20T23:50:53.796Z,1.32
2019-05-20T23:53:22.221Z,1.30
2019-05-20T23:55:50.303Z,1.65
2019-05-20T23:58:18.715Z,1.17
